Terminal Aerodrome Forecast
Issued by NWS Quad Cities IA IL

Home | Current Version | Previous Version | Text Only | Print | Product List | Glossary On
Versions: 1 2 3 4 5 6 7 8 9 10 11 12 13 14 15 16 17 18 19 20 21
000
FTUS43 KDVN 171600 AAC
TAFDBQ
TAF AMD
KDBQ 171612Z 1716/1812 11007KT P6SM OVC007
     FM171800 08007KT P6SM SCT005 BKN012
     FM172000 09006KT P6SM BKN035
     FM180600 10003KT 4SM BR SCT080
     FM180900 10003KT 1SM BR SCT009=

USA.gov is the U.S. government's official web portal to all federal, state and local government web resources and services.